createdAt,value
2023-02-08T00:00:55.106Z,-2.94
2023-02-08T00:03:22.428Z,-2.95
2023-02-08T00:05:50.215Z,-3.01
2023-02-08T00:08:17.310Z,-3.17
2023-02-08T00:10:44.351Z,-3.06
2023-02-08T00:13:11.429Z,-3.10
2023-02-08T00:15:45.843Z,-3.04
2023-02-08T00:18:13.157Z,-3.02
2023-02-08T00:20:42.165Z,-3.06
2023-02-08T00:23:09.238Z,-2.96
2023-02-08T00:25:36.715Z,-3.00
2023-02-08T00:28:04.829Z,-2.92
2023-02-08T00:30:32.516Z,-3.21
2023-02-08T00:33:01.506Z,-2.95
2023-02-08T00:35:29.407Z,-3.05
2023-02-08T00:37:57.114Z,-2.99
2023-02-08T00:40:27.075Z,-2.98
2023-02-08T00:42:54.300Z,-2.95
2023-02-08T00:45:21.330Z,-2.98
2023-02-08T00:47:48.208Z,-3.34
2023-02-08T00:50:15.554Z,-2.93
2023-02-08T00:52:42.549Z,-2.96
2023-02-08T00:55:09.629Z,-2.92
2023-02-08T00:57:36.751Z,-2.97
2023-02-08T01:00:06.085Z,-3.09
2023-02-08T01:02:33.240Z,-3.09
2023-02-08T01:05:00.174Z,-3.13
2023-02-08T01:07:27.126Z,-3.13
2023-02-08T01:09:54.027Z,-3.13
2023-02-08T01:12:20.935Z,-3.10
2023-02-08T01:14:47.900Z,-3.16
2023-02-08T01:17:14.800Z,-3.12
2023-02-08T01:19:42.604Z,-3.17
2023-02-08T01:22:09.647Z,-3.17
2023-02-08T01:24:36.637Z,-3.19
2023-02-08T01:27:03.576Z,-3.14
2023-02-08T01:29:30.553Z,-3.15
2023-02-08T01:31:57.537Z,-3.11
2023-02-08T01:34:27.355Z,-3.12
2023-02-08T01:36:54.298Z,-3.11
2023-02-08T01:39:21.299Z,-3.06
2023-02-08T01:41:48.343Z,-3.04
2023-02-08T01:44:15.235Z,-3.06
2023-02-08T01:46:44.867Z,-3.03
2023-02-08T01:49:26.898Z,-2.93
2023-02-08T01:52:05.717Z,-2.97
2023-02-08T01:54:40.877Z,-2.92
2023-02-08T01:57:08.570Z,-2.85
2023-02-08T01:59:49.984Z,-2.76
2023-02-08T02:02:19.959Z,-2.74
2023-02-08T02:04:48.976Z,-2.70
2023-02-08T02:07:38.822Z,-2.74
2023-02-08T02:10:22.653Z,-2.78
2023-02-08T02:13:17.036Z,-2.75
2023-02-08T02:16:05.975Z,-3.00
2023-02-08T02:18:48.763Z,-2.68
2023-02-08T02:21:34.588Z,-2.72
2023-02-08T02:24:27.172Z,-2.68
2023-02-08T02:27:40.971Z,-2.72
2023-02-08T02:30:16.938Z,-2.73
2023-02-08T02:33:22.452Z,-2.78
2023-02-08T02:36:09.751Z,-2.73
2023-02-08T02:39:11.946Z,-2.73
2023-02-08T02:42:26.536Z,-2.77
2023-02-08T02:45:11.444Z,-2.87
2023-02-08T02:47:51.993Z,-2.75
2023-02-08T02:50:37.424Z,-2.83
2023-02-08T02:53:20.886Z,-2.84
2023-02-08T02:55:56.570Z,-2.84
2023-02-08T02:58:26.787Z,-2.85
2023-02-08T03:00:56.542Z,-2.78
2023-02-08T03:03:26.943Z,-2.71
2023-02-08T03:06:00.265Z,-2.66
2023-02-08T03:08:55.570Z,-2.78
2023-02-08T03:11:27.179Z,-2.76
2023-02-08T03:14:24.162Z,-2.72
2023-02-08T03:17:04.639Z,-2.71
2023-02-08T03:19:36.386Z,-2.65
2023-02-08T03:22:23.877Z,-2.61
2023-02-08T03:25:06.518Z,-2.71
2023-02-08T03:27:36.128Z,-2.71
2023-02-08T03:30:13.755Z,-2.72
2023-02-08T03:33:20.528Z,-2.77
2023-02-08T03:36:05.488Z,-2.76
2023-02-08T03:38:39.923Z,-2.73
2023-02-08T03:41:10.981Z,-2.91
2023-02-08T03:43:47.709Z,-2.65
2023-02-08T03:46:21.901Z,-2.92
2023-02-08T03:48:54.622Z,-2.67
2023-02-08T03:51:23.427Z,-2.91
2023-02-08T03:53:52.963Z,-2.70
2023-02-08T03:56:48.659Z,-2.71
2023-02-08T03:59:22.839Z,-2.73
2023-02-08T04:02:01.589Z,-2.75
2023-02-08T04:04:34.333Z,-2.89
2023-02-08T04:07:01.433Z,-2.94
2023-02-08T04:09:28.537Z,-2.98
2023-02-08T04:11:55.488Z,-2.97
2023-02-08T04:14:22.358Z,-3.03
2023-02-08T04:16:49.286Z,-3.10
2023-02-08T04:19:16.245Z,-3.08
2023-02-08T04:21:43.167Z,-3.04
2023-02-08T04:24:10.228Z,-3.20
2023-02-08T04:26:37.145Z,-3.01
2023-02-08T04:29:04.094Z,-3.03
2023-02-08T04:31:31.149Z,-3.07
2023-02-08T04:33:58.229Z,-3.07
2023-02-08T04:36:25.339Z,-3.04
2023-02-08T04:38:52.247Z,-3.02
2023-02-08T04:41:19.329Z,-2.98
2023-02-08T04:43:46.288Z,-3.02
2023-02-08T04:46:13.247Z,-3.01
2023-02-08T04:48:40.338Z,-2.93
2023-02-08T04:51:07.195Z,-2.91
2023-02-08T04:53:35.094Z,-2.96
2023-02-08T04:56:02.028Z,-2.98
2023-02-08T04:58:28.973Z,-3.01
2023-02-08T05:00:55.862Z,-3.02
2023-02-08T05:03:22.859Z,-2.96
2023-02-08T05:06:01.132Z,-2.98
2023-02-08T05:08:28.551Z,-3.04
2023-02-08T05:10:55.571Z,-3.04
2023-02-08T05:13:22.507Z,-3.00
2023-02-08T05:15:49.460Z,-3.00
2023-02-08T05:18:16.622Z,-2.91
2023-02-08T05:20:43.641Z,-2.87
2023-02-08T05:23:10.614Z,-2.79
2023-02-08T05:25:39.492Z,-2.77
2023-02-08T05:28:06.533Z,-2.83
2023-02-08T05:30:33.539Z,-2.81
2023-02-08T05:33:00.455Z,-2.80
2023-02-08T05:35:27.490Z,-2.80
2023-02-08T05:37:54.342Z,-2.74
2023-02-08T05:40:21.664Z,-2.74
2023-02-08T05:42:48.548Z,-2.72
2023-02-08T05:45:15.600Z,-2.74
2023-02-08T05:47:42.961Z,-2.73
2023-02-08T05:50:10.719Z,-2.73
2023-02-08T05:52:37.651Z,-2.72
2023-02-08T05:55:04.950Z,-2.71
2023-02-08T05:57:34.290Z,-2.66
2023-02-08T06:00:03.512Z,-2.66
2023-02-08T06:02:30.722Z,-2.61
2023-02-08T06:04:57.615Z,-2.60
2023-02-08T06:07:24.553Z,-2.53
2023-02-08T06:09:51.473Z,-2.47
2023-02-08T06:12:18.393Z,-2.48
2023-02-08T06:14:45.316Z,-2.40
2023-02-08T06:17:12.363Z,-2.43
2023-02-08T06:19:39.288Z,-2.41
2023-02-08T06:22:06.203Z,-2.38
2023-02-08T06:24:33.144Z,-2.37
2023-02-08T06:27:00.062Z,-2.53
2023-02-08T06:29:27.005Z,-2.54
2023-02-08T06:31:54.099Z,-2.53
2023-02-08T06:34:21.118Z,-2.60
2023-02-08T06:36:48.046Z,-2.66
2023-02-08T06:39:14.980Z,-2.65
2023-02-08T06:41:41.877Z,-2.65
2023-02-08T06:44:08.787Z,-2.65
2023-02-08T06:46:35.677Z,-2.81
2023-02-08T06:49:02.628Z,-2.65
2023-02-08T06:51:29.499Z,-2.58
2023-02-08T06:53:56.442Z,-2.50
2023-02-08T06:56:23.391Z,-2.55
2023-02-08T06:58:50.299Z,-2.52
2023-02-08T07:01:17.262Z,-2.61
2023-02-08T07:03:44.246Z,-2.76
2023-02-08T07:06:19.476Z,-2.66
2023-02-08T07:08:48.248Z,-2.55
2023-02-08T07:11:18.265Z,-2.43
2023-02-08T07:13:50.493Z,-2.43
2023-02-08T07:16:19.675Z,-2.43
2023-02-08T07:18:47.207Z,-2.51
2023-02-08T07:21:14.242Z,-2.25
2023-02-08T07:23:41.293Z,-2.18
2023-02-08T07:26:10.995Z,-2.25
2023-02-08T07:28:38.657Z,-2.18
2023-02-08T07:31:14.510Z,-2.23
2023-02-08T07:33:41.781Z,-2.21
2023-02-08T07:36:10.778Z,-2.18
2023-02-08T07:38:38.363Z,-2.10
2023-02-08T07:41:08.519Z,-2.06
2023-02-08T07:43:37.036Z,-2.03
2023-02-08T07:46:14.624Z,-1.92
2023-02-08T07:48:42.185Z,-1.80
2023-02-08T07:51:10.316Z,-1.77
2023-02-08T07:53:37.970Z,-1.67
2023-02-08T07:56:05.739Z,-1.28
2023-02-08T07:58:32.662Z,-1.34
2023-02-08T08:01:06.912Z,-1.52
2023-02-08T08:03:39.417Z,-1.63
2023-02-08T08:06:06.697Z,-1.64
2023-02-08T08:08:33.756Z,-1.45
2023-02-08T08:11:03.458Z,-1.19
2023-02-08T08:13:30.645Z,-0.89
2023-02-08T08:15:57.663Z,-0.81
2023-02-08T08:18:24.686Z,-1.00
2023-02-08T08:20:51.636Z,-1.10
2023-02-08T08:23:19.890Z,-1.02
2023-02-08T08:25:47.104Z,-0.96
2023-02-08T08:28:14.313Z,-1.16
2023-02-08T08:30:45.535Z,-1.15
2023-02-08T08:33:14.244Z,-1.12
2023-02-08T08:35:42.815Z,-1.09
2023-02-08T08:38:10.266Z,-1.28
2023-02-08T08:40:37.121Z,-1.13
2023-02-08T08:43:04.035Z,-1.02
2023-02-08T08:45:30.945Z,-0.81
2023-02-08T08:47:58.722Z,-0.71
2023-02-08T08:50:25.616Z,-0.37
2023-02-08T08:52:53.391Z,-0.19
2023-02-08T08:55:20.333Z,0.05
2023-02-08T08:57:47.267Z,-0.12
2023-02-08T09:00:14.870Z,-0.07
2023-02-08T09:02:41.750Z,-0.10
2023-02-08T09:05:08.893Z,-0.02
2023-02-08T09:07:35.879Z,0.03
2023-02-08T09:10:03.067Z,0.07
2023-02-08T09:12:29.975Z,0.09
2023-02-08T09:14:56.983Z,0.08
2023-02-08T09:17:24.270Z,-0.35
2023-02-08T09:19:51.308Z,-0.49
2023-02-08T09:22:18.962Z,-0.44
2023-02-08T09:24:46.067Z,-0.16
2023-02-08T09:27:13.037Z,-0.35
2023-02-08T09:29:40.059Z,-0.48
2023-02-08T09:32:08.362Z,-0.07
2023-02-08T09:34:36.625Z,0.28
2023-02-08T09:37:03.579Z,0.48
2023-02-08T09:39:30.545Z,0.25
2023-02-08T09:42:14.414Z,0.21
2023-02-08T09:44:48.802Z,-0.14
2023-02-08T09:47:30.480Z,-0.09
2023-02-08T09:50:39.754Z,0.22
2023-02-08T09:53:27.671Z,0.37
2023-02-08T09:56:01.972Z,-0.07
2023-02-08T09:58:40.603Z,-0.24
2023-02-08T10:01:23.237Z,-0.37
2023-02-08T10:03:56.086Z,-0.29
2023-02-08T10:06:23.089Z,-0.28
2023-02-08T10:08:52.755Z,-0.12
2023-02-08T10:11:38.237Z,-0.09
2023-02-08T10:14:29.784Z,0.10
2023-02-08T10:17:33.282Z,0.35
2023-02-08T10:20:24.658Z,0.40
2023-02-08T10:23:05.738Z,0.03
2023-02-08T10:25:54.184Z,-0.16
2023-02-08T10:28:59.675Z,-0.42
2023-02-08T10:32:00.271Z,0.05
2023-02-08T10:34:50.399Z,-0.08
2023-02-08T10:37:20.518Z,-0.06
2023-02-08T10:39:50.224Z,0.00
2023-02-08T10:42:22.588Z,-0.18
2023-02-08T10:45:12.729Z,-0.14
2023-02-08T10:47:54.577Z,-0.17
2023-02-08T10:50:39.248Z,-0.34
2023-02-08T10:53:06.914Z,-0.34
2023-02-08T10:55:39.867Z,-0.35
2023-02-08T10:58:07.428Z,-0.16
2023-02-08T11:00:39.535Z,-0.30
2023-02-08T11:03:25.177Z,-0.42
2023-02-08T11:05:53.347Z,-0.29
2023-02-08T11:08:25.818Z,-0.20
2023-02-08T11:11:03.794Z,-0.32
2023-02-08T11:13:46.026Z,-0.33
2023-02-08T11:16:22.593Z,-0.10
2023-02-08T11:18:57.049Z,-0.19
2023-02-08T11:21:26.200Z,0.09
2023-02-08T11:23:55.802Z,0.31
2023-02-08T11:26:33.245Z,0.42
2023-02-08T11:29:08.835Z,0.58
2023-02-08T11:31:36.882Z,0.80
2023-02-08T11:34:11.570Z,0.87
2023-02-08T11:36:47.102Z,1.03
2023-02-08T11:39:49.990Z,1.11
2023-02-08T11:42:26.677Z,1.01
2023-02-08T11:44:55.831Z,0.40
2023-02-08T11:47:35.644Z,0.05
2023-02-08T11:50:06.137Z,-0.04
2023-02-08T11:52:39.534Z,-0.19
2023-02-08T11:55:35.900Z,-0.09
2023-02-08T11:58:20.586Z,0.00
2023-02-08T12:01:18.148Z,-0.05
2023-02-08T12:03:48.306Z,-0.19
2023-02-08T12:06:17.953Z,-0.03
2023-02-08T12:08:44.895Z,-0.07
2023-02-08T12:11:38.140Z,0.07
2023-02-08T12:14:35.789Z,0.45
2023-02-08T12:17:17.831Z,0.63
2023-02-08T12:19:50.665Z,0.81
2023-02-08T12:22:27.217Z,0.92
2023-02-08T12:25:10.649Z,0.60
2023-02-08T12:27:53.155Z,0.25
2023-02-08T12:30:30.602Z,0.17
2023-02-08T12:33:22.927Z,0.18
2023-02-08T12:36:04.090Z,0.08
2023-02-08T12:39:10.389Z,-0.03
2023-02-08T12:41:55.929Z,0.03
2023-02-08T12:44:30.602Z,-0.23
2023-02-08T12:47:24.104Z,-0.10
2023-02-08T12:49:56.944Z,0.30
2023-02-08T12:52:31.681Z,0.03
2023-02-08T12:55:11.275Z,-0.15
2023-02-08T12:57:40.114Z,0.02
2023-02-08T13:00:16.519Z,0.06
2023-02-08T13:02:57.728Z,0.21
2023-02-08T13:05:31.887Z,0.26
2023-02-08T13:08:35.303Z,0.24
2023-02-08T13:11:19.133Z,0.21
2023-02-08T13:14:04.952Z,0.43
2023-02-08T13:16:42.959Z,0.45
2023-02-08T13:19:59.726Z,0.70
2023-02-08T13:22:27.743Z,0.61
2023-02-08T13:25:06.780Z,0.80
2023-02-08T13:27:34.686Z,0.66
2023-02-08T13:30:02.328Z,0.50
2023-02-08T13:32:42.108Z,0.39
2023-02-08T13:35:18.789Z,0.38
2023-02-08T13:38:21.922Z,0.32
2023-02-08T13:41:08.917Z,0.49
2023-02-08T13:43:49.001Z,0.50
2023-02-08T13:46:18.174Z,0.68
2023-02-08T13:48:54.426Z,0.71
2023-02-08T13:51:33.477Z,0.66
2023-02-08T13:54:00.610Z,0.81
2023-02-08T13:56:45.440Z,0.50
2023-02-08T13:59:27.477Z,0.45
2023-02-08T14:02:30.481Z,0.35
2023-02-08T14:05:38.486Z,0.14
2023-02-08T14:08:08.814Z,0.30
2023-02-08T14:10:43.609Z,0.23
2023-02-08T14:13:16.597Z,0.09
2023-02-08T14:15:44.316Z,-0.08
2023-02-08T14:18:26.015Z,-0.02
2023-02-08T14:21:04.288Z,-0.13
2023-02-08T14:23:35.230Z,-0.30
2023-02-08T14:26:11.169Z,-0.50
2023-02-08T14:28:44.453Z,-0.36
2023-02-08T14:31:15.359Z,-0.32
2023-02-08T14:33:53.538Z,-0.35
2023-02-08T14:36:32.173Z,-0.41
2023-02-08T14:39:27.269Z,-0.32
2023-02-08T14:42:01.387Z,-0.40
2023-02-08T14:44:43.503Z,-0.58
2023-02-08T14:47:25.960Z,-0.62
2023-02-08T14:50:26.388Z,-0.73
2023-02-08T14:53:20.012Z,-0.76
2023-02-08T14:55:52.381Z,-0.80
2023-02-08T14:58:31.329Z,-0.88
2023-02-08T15:01:03.385Z,-0.81
2023-02-08T15:03:32.762Z,-0.90
2023-02-08T15:06:21.041Z,-0.92
2023-02-08T15:08:55.653Z,-0.94
2023-02-08T15:11:30.228Z,-0.89
2023-02-08T15:14:01.236Z,-0.92
2023-02-08T15:16:41.163Z,-0.92
2023-02-08T15:19:10.404Z,-1.07
2023-02-08T15:21:37.620Z,-0.99
2023-02-08T15:24:17.556Z,-1.07
2023-02-08T15:26:58.150Z,-1.13
2023-02-08T15:29:42.941Z,-1.14
2023-02-08T15:32:18.148Z,-1.37
2023-02-08T15:34:51.157Z,-1.31
2023-02-08T15:37:19.487Z,-1.43
2023-02-08T15:39:51.074Z,-1.50
2023-02-08T15:42:30.211Z,-1.56
2023-02-08T15:44:57.446Z,-1.58
2023-02-08T15:47:38.032Z,-1.60
2023-02-08T15:50:15.263Z,-1.65
2023-02-08T15:52:42.578Z,-1.73
2023-02-08T15:55:17.788Z,-1.81
2023-02-08T15:57:56.163Z,-1.81
2023-02-08T16:00:32.225Z,-1.90
2023-02-08T16:03:03.121Z,-1.95
2023-02-08T16:05:31.885Z,-2.01
2023-02-08T16:08:00.788Z,-2.01
2023-02-08T16:10:46.780Z,-2.02
2023-02-08T16:13:24.566Z,-2.04
2023-02-08T16:16:07.131Z,-2.20
2023-02-08T16:18:38.474Z,-2.21
2023-02-08T16:21:27.044Z,-2.34
2023-02-08T16:23:56.929Z,-2.40
2023-02-08T16:26:23.796Z,-2.46
2023-02-08T16:29:08.951Z,-2.52
2023-02-08T16:31:36.270Z,-2.53
2023-02-08T16:34:07.038Z,-2.72
2023-02-08T16:36:39.626Z,-2.86
2023-02-08T16:39:16.340Z,-2.78
2023-02-08T16:42:06.393Z,-2.87
2023-02-08T16:45:01.530Z,-2.96
2023-02-08T16:47:45.327Z,-3.07
2023-02-08T16:50:15.424Z,-3.11
2023-02-08T16:52:42.589Z,-3.13
2023-02-08T16:55:21.939Z,-3.12
2023-02-08T16:57:55.317Z,-3.17
2023-02-08T17:00:32.238Z,-3.20
2023-02-08T17:03:00.439Z,-3.31
2023-02-08T17:05:30.356Z,-3.23
2023-02-08T17:07:58.374Z,-3.21
2023-02-08T17:10:28.733Z,-3.20
2023-02-08T17:13:09.825Z,-3.23
2023-02-08T17:15:44.167Z,-3.19
2023-02-08T17:18:13.090Z,-3.19
2023-02-08T17:20:40.830Z,-3.21
2023-02-08T17:23:08.048Z,-3.41
2023-02-08T17:25:35.981Z,-3.10
2023-02-08T17:28:07.128Z,-3.45
2023-02-08T17:30:39.348Z,-3.28
2023-02-08T17:33:07.784Z,-3.36
2023-02-08T17:35:37.255Z,-3.40
2023-02-08T17:38:05.510Z,-3.50
2023-02-08T17:40:37.019Z,-3.55
2023-02-08T17:43:05.926Z,-3.59
2023-02-08T17:45:39.432Z,-3.61
2023-02-08T17:48:06.680Z,-3.70
2023-02-08T17:50:34.213Z,-3.82
2023-02-08T17:53:01.140Z,-3.70
2023-02-08T17:55:28.074Z,-3.82
2023-02-08T17:57:55.025Z,-3.74
2023-02-08T18:00:24.195Z,-3.71
2023-02-08T18:02:55.397Z,-3.72
2023-02-08T18:05:26.246Z,-3.74
2023-02-08T18:07:55.417Z,-3.78
2023-02-08T18:10:23.713Z,-3.81
2023-02-08T18:12:51.038Z,-4.16
2023-02-08T18:15:21.537Z,-3.93
2023-02-08T18:17:50.563Z,-4.03
2023-02-08T18:20:18.504Z,-4.16
2023-02-08T18:22:45.997Z,-4.46
2023-02-08T18:25:14.649Z,-4.30
2023-02-08T18:27:41.787Z,-4.30
2023-02-08T18:30:10.204Z,-4.28
2023-02-08T18:32:37.423Z,-4.26
2023-02-08T18:35:06.740Z,-4.24
2023-02-08T18:37:34.187Z,-4.24
2023-02-08T18:40:01.150Z,-4.23
2023-02-08T18:42:28.776Z,-4.58
2023-02-08T18:44:55.835Z,-4.51
2023-02-08T18:47:22.781Z,-4.64
2023-02-08T18:49:54.797Z,-5.13
2023-02-08T18:52:23.902Z,-5.08
2023-02-08T18:54:51.254Z,-5.14
2023-02-08T18:57:18.838Z,-5.12
2023-02-08T18:59:45.787Z,-5.24
2023-02-08T19:02:18.908Z,-5.01
2023-02-08T19:04:45.852Z,-4.96
2023-02-08T19:07:13.702Z,-4.99
2023-02-08T19:09:41.339Z,-4.99
2023-02-08T19:12:09.406Z,-5.07
2023-02-08T19:14:36.533Z,-5.13
2023-02-08T19:17:03.795Z,-5.26
2023-02-08T19:19:30.793Z,-5.26
2023-02-08T19:21:57.737Z,-5.22
2023-02-08T19:24:25.334Z,-5.19
2023-02-08T19:26:52.364Z,-5.23
2023-02-08T19:29:23.035Z,-5.30
2023-02-08T19:31:50.640Z,-5.45
2023-02-08T19:34:18.324Z,-5.33
2023-02-08T19:36:52.658Z,-5.41
2023-02-08T19:39:25.041Z,-5.45
2023-02-08T19:41:55.721Z,-5.53
2023-02-08T19:44:23.054Z,-5.50
2023-02-08T19:46:53.168Z,-5.51
2023-02-08T19:49:20.995Z,-5.54
2023-02-08T19:51:48.391Z,-5.54
2023-02-08T19:54:18.048Z,-5.60
2023-02-08T19:56:45.917Z,-5.62
2023-02-08T19:59:35.204Z,-5.70
2023-02-08T20:02:02.552Z,-5.84
2023-02-08T20:04:29.940Z,-5.94
2023-02-08T20:06:56.870Z,-5.79
2023-02-08T20:09:23.853Z,-5.78
2023-02-08T20:12:00.092Z,-5.78
2023-02-08T20:14:33.121Z,-5.91
2023-02-08T20:17:01.762Z,-6.06
2023-02-08T20:19:29.479Z,-6.12
2023-02-08T20:21:56.443Z,-6.15
2023-02-08T20:24:23.385Z,-6.19
2023-02-08T20:26:50.460Z,-6.25
2023-02-08T20:29:17.725Z,-6.39
2023-02-08T20:31:47.870Z,-6.40
2023-02-08T20:34:16.531Z,-6.62
2023-02-08T20:37:06.894Z,-6.82
2023-02-08T20:39:35.495Z,-6.81
2023-02-08T20:42:02.944Z,-6.69
2023-02-08T20:44:31.123Z,-6.67
2023-02-08T20:46:58.077Z,-6.64
2023-02-08T20:49:26.704Z,-6.64
2023-02-08T20:51:54.705Z,-6.92
2023-02-08T20:54:24.736Z,-7.01
2023-02-08T20:56:53.181Z,-6.99
2023-02-08T20:59:20.438Z,-7.08
2023-02-08T21:01:47.643Z,-7.02
2023-02-08T21:04:17.274Z,-7.06
2023-02-08T21:06:46.515Z,-7.16
2023-02-08T21:09:16.187Z,-7.37
2023-02-08T21:11:44.125Z,-7.41
2023-02-08T21:14:19.282Z,-7.29
2023-02-08T21:16:58.917Z,-7.24
2023-02-08T21:19:28.839Z,-7.41
2023-02-08T21:21:59.194Z,-7.65
2023-02-08T21:24:28.332Z,-7.69
2023-02-08T21:26:57.037Z,-7.71
2023-02-08T21:29:24.877Z,-7.83
2023-02-08T21:31:54.543Z,-7.84
2023-02-08T21:34:21.845Z,-7.88
2023-02-08T21:36:48.867Z,-7.87
2023-02-08T21:39:15.732Z,-7.94
2023-02-08T21:41:42.686Z,-7.88
2023-02-08T21:44:11.084Z,-7.89
2023-02-08T21:46:38.018Z,-7.86
2023-02-08T21:49:23.648Z,-7.87
2023-02-08T21:52:09.394Z,-7.87
2023-02-08T21:54:42.363Z,-7.78
2023-02-08T21:57:13.114Z,-7.69
2023-02-08T21:59:41.020Z,-7.61
2023-02-08T22:02:16.631Z,-7.57
2023-02-08T22:05:01.960Z,-7.57
2023-02-08T22:07:29.178Z,-7.56
2023-02-08T22:09:56.335Z,-7.55
2023-02-08T22:12:23.791Z,-7.56
2023-02-08T22:14:51.095Z,-7.61
2023-02-08T22:17:18.261Z,-7.50
2023-02-08T22:19:45.192Z,-7.52
2023-02-08T22:22:12.212Z,-7.59
2023-02-08T22:24:39.273Z,-7.61
2023-02-08T22:27:06.209Z,-7.62
2023-02-08T22:29:33.603Z,-7.78
2023-02-08T22:32:01.335Z,-7.62
2023-02-08T22:34:28.575Z,-7.63
2023-02-08T22:36:55.606Z,-7.62
2023-02-08T22:39:22.760Z,-7.62
2023-02-08T22:41:49.772Z,-7.65
2023-02-08T22:44:16.806Z,-7.75
2023-02-08T22:46:43.728Z,-7.78
2023-02-08T22:49:10.782Z,-7.90
2023-02-08T22:51:37.946Z,-7.98
2023-02-08T22:54:05.109Z,-8.00
2023-02-08T22:56:32.044Z,-8.05
2023-02-08T22:59:00.383Z,-8.02
2023-02-08T23:01:27.808Z,-8.08
2023-02-08T23:03:54.801Z,-8.05
2023-02-08T23:06:21.714Z,-8.02
2023-02-08T23:08:49.080Z,-8.02
2023-02-08T23:11:16.424Z,-8.05
2023-02-08T23:13:43.352Z,-8.19
2023-02-08T23:16:16.112Z,-8.26
2023-02-08T23:18:43.397Z,-8.26
2023-02-08T23:21:13.614Z,-8.28
2023-02-08T23:23:41.347Z,-8.26
2023-02-08T23:26:10.777Z,-8.22
2023-02-08T23:28:37.794Z,-8.21
2023-02-08T23:31:06.761Z,-8.15
2023-02-08T23:33:34.397Z,-8.19
2023-02-08T23:36:05.797Z,-8.27
2023-02-08T23:38:32.765Z,-8.38
2023-02-08T23:41:04.227Z,-8.40
2023-02-08T23:43:31.475Z,-8.37
2023-02-08T23:45:58.883Z,-8.32
2023-02-08T23:48:25.792Z,-8.54
2023-02-08T23:51:00.277Z,-8.84
2023-02-08T23:53:30.366Z,-8.69
2023-02-08T23:56:20.850Z,-8.72
2023-02-08T23:58:50.112Z,-8.71
